Time;durP1;ratioP1;P1;durP2;ratioP2;P2;SDS_P1;SDS_P2;PMS_P1;PMS_P2;Temp;Humidity;BMP_temperature;BMP_pressure;BME280_temperature;BME280_humidity;BME280_pressure;Samples;Min_cycle;Max_cycle;Signal;HPM_P1;HPM_P2
2021/10/21 00:02:18;;;;;;;14.80;8.60;;;16.00;96.00;;;;;;5035829;28;20464;-75
2021/10/21 00:04:44;;;;;;;14.77;8.33;;;16.00;95.90;;;;;;5033761;28;20188;-74
2021/10/21 00:07:11;;;;;;;15.23;8.30;;;15.90;96.10;;;;;;5029237;28;20213;-72
2021/10/21 00:09:36;;;;;;;15.50;7.93;;;15.90;96.50;;;;;;5029574;28;20212;-72
2021/10/21 00:12:04;;;;;;;12.13;7.70;;;15.90;96.70;;;;;;5031507;28;20810;-74
2021/10/21 00:14:31;;;;;;;9.37;6.80;;;15.80;96.80;;;;;;5029816;28;20271;-74
2021/10/21 00:16:57;;;;;;;14.90;7.73;;;15.70;97.00;;;;;;5031474;28;20467;-76
2021/10/21 00:19:23;;;;;;;14.37;7.63;;;15.70;97.20;;;;;;5030402;28;20432;-74
2021/10/21 00:21:49;;;;;;;10.33;6.10;;;15.70;97.10;;;;;;5028448;28;21181;-73
2021/10/21 00:24:18;;;;;;;10.90;6.80;;;15.70;97.00;;;;;;5030416;28;20200;-74
2021/10/21 00:26:44;;;;;;;12.37;6.67;;;15.70;96.80;;;;;;5028576;28;20513;-75
2021/10/21 00:29:10;;;;;;;10.40;6.30;;;15.70;96.90;;;;;;5030535;28;20424;-74
2021/10/21 00:31:36;;;;;;;9.97;6.50;;;15.70;97.10;;;;;;5032417;28;20467;-74
2021/10/21 00:34:01;;;;;;;16.50;7.70;;;15.70;97.00;;;;;;5029247;28;20656;-74
2021/10/21 00:36:29;;;;;;;12.83;6.67;;;15.70;97.00;;;;;;5032195;28;20196;-76
2021/10/21 00:38:55;;;;;;;11.67;7.10;;;15.70;96.90;;;;;;5037001;28;20529;-75
2021/10/21 00:41:21;;;;;;;10.97;7.40;;;15.70;97.00;;;;;;5039106;28;20428;-75
2021/10/21 00:43:47;;;;;;;10.10;6.70;;;15.70;96.90;;;;;;5034044;28;20422;-76
2021/10/21 00:46:15;;;;;;;10.43;6.07;;;15.80;96.60;;;;;;5034078;28;20471;-76
2021/10/21 00:48:41;;;;;;;9.10;6.50;;;15.80;96.50;;;;;;5035987;28;20557;-75
2021/10/21 00:51:12;;;;;;;12.67;6.30;;;15.80;96.50;;;;;;5035790;28;20420;-75
2021/10/21 00:53:39;;;;;;;11.17;6.77;;;15.80;96.10;;;;;;5033657;28;20428;-74
2021/10/21 00:56:07;;;;;;;10.53;6.57;;;15.80;96.00;;;;;;5035324;28;20944;-76
2021/10/21 00:58:34;;;;;;;13.00;6.90;;;15.70;95.80;;;;;;5033877;28;20454;-74
2021/10/21 01:01:00;;;;;;;10.17;6.10;;;15.70;95.70;;;;;;5033582;28;20440;-76
2021/10/21 01:03:26;;;;;;;11.07;6.60;;;15.60;95.70;;;;;;5032607;28;20448;-76
2021/10/21 01:05:52;;;;;;;9.70;5.90;;;15.60;96.00;;;;;;5033086;28;20424;-76
2021/10/21 01:08:18;;;;;;;17.10;6.90;;;15.60;95.90;;;;;;5032774;28;20445;-77
2021/10/21 01:10:46;;;;;;;10.90;7.00;;;15.60;96.00;;;;;;5032818;28;20430;-75
2021/10/21 01:13:12;;;;;;;14.43;7.20;;;15.60;96.10;;;;;;5032218;28;20453;-75
2021/10/21 01:15:37;;;;;;;11.43;6.77;;;15.60;96.10;;;;;;5032717;28;20443;-76
2021/10/21 01:18:03;;;;;;;16.50;7.70;;;15.60;96.20;;;;;;5032923;28;20310;-74
2021/10/21 01:20:29;;;;;;;10.80;6.90;;;15.60;96.40;;;;;;5031364;28;20189;-74
2021/10/21 01:22:55;;;;;;;10.90;6.33;;;15.50;96.40;;;;;;5032207;28;20279;-76
2021/10/21 01:25:21;;;;;;;10.63;6.90;;;15.50;96.30;;;;;;5032714;28;20427;-73
2021/10/21 01:27:49;;;;;;;10.07;6.70;;;15.50;96.50;;;;;;5033190;28;20215;-74
2021/10/21 01:30:21;;;;;;;18.30;8.50;;;15.40;96.40;;;;;;5032426;28;20427;-76
2021/10/21 01:32:47;;;;;;;13.23;7.57;;;15.40;96.70;;;;;;5030788;28;20451;-75
2021/10/21 01:35:14;;;;;;;14.70;7.77;;;15.40;97.10;;;;;;5032355;28;20477;-76
2021/10/21 01:37:40;;;;;;;12.57;7.00;;;15.30;97.10;;;;;;5032567;28;20431;-76
2021/10/21 01:40:10;;;;;;;12.70;6.80;;;15.30;97.00;;;;;;5032372;28;20475;-75
2021/10/21 01:42:39;;;;;;;10.30;6.73;;;15.20;96.90;;;;;;5031060;28;20491;-76
2021/10/21 01:45:27;;;;;;;9.33;5.90;;;15.30;97.00;;;;;;5032462;28;20511;-76
2021/10/21 01:47:53;;;;;;;12.80;6.37;;;15.30;96.90;;;;;;5032755;28;20908;-76
2021/10/21 01:50:20;;;;;;;11.17;6.17;;;15.20;96.90;;;;;;5030180;28;21002;-76
2021/10/21 01:52:47;;;;;;;10.10;6.10;;;15.20;96.80;;;;;;5033877;28;20439;-76
2021/10/21 01:55:13;;;;;;;8.93;5.27;;;15.30;96.70;;;;;;5034319;28;20417;-76
2021/10/21 01:57:40;;;;;;;11.53;6.57;;;15.20;96.50;;;;;;5032683;28;20428;-76
2021/10/21 02:00:07;;;;;;;10.97;5.70;;;15.30;96.30;;;;;;5031861;28;20469;-75
2021/10/21 02:02:33;;;;;;;12.10;6.07;;;15.30;96.20;;;;;;5031681;28;20432;-75
2021/10/21 02:04:59;;;;;;;8.53;5.27;;;15.30;96.20;;;;;;5033012;28;20436;-73
2021/10/21 02:07:24;;;;;;;8.80;5.63;;;15.30;96.20;;;;;;5031559;28;20209;-75
2021/10/21 02:09:50;;;;;;;7.80;5.40;;;15.30;96.40;;;;;;5035886;28;20185;-74
2021/10/21 02:12:16;;;;;;;9.30;5.57;;;15.30;96.70;;;;;;5041209;28;20205;-74
2021/10/21 02:14:41;;;;;;;10.37;5.43;;;15.30;96.70;;;;;;5038465;28;20185;-75
2021/10/21 02:17:07;;;;;;;8.63;5.00;;;15.30;96.90;;;;;;5034295;28;20193;-75
2021/10/21 02:19:36;;;;;;;11.17;6.33;;;15.20;96.90;;;;;;5040779;28;20185;-76
2021/10/21 02:22:02;;;;;;;7.77;5.50;;;15.30;97.00;;;;;;5043785;28;20210;-75
2021/10/21 02:24:28;;;;;;;7.53;4.17;;;15.30;97.00;;;;;;5041961;28;20976;-76
2021/10/21 02:26:54;;;;;;;7.53;4.60;;;15.30;96.90;;;;;;5031067;28;20464;-77
2021/10/21 02:29:20;;;;;;;6.80;4.40;;;15.30;97.10;;;;;;5030243;28;20292;-75
2021/10/21 02:31:45;;;;;;;5.93;4.10;;;15.20;97.40;;;;;;5030891;28;20248;-75
2021/10/21 02:34:11;;;;;;;10.43;5.13;;;15.20;97.40;;;;;;5030234;28;20189;-75
2021/10/21 02:36:37;;;;;;;8.30;5.23;;;15.20;97.40;;;;;;5030128;28;20185;-75
2021/10/21 02:39:04;;;;;;;16.70;4.37;;;15.20;97.50;;;;;;5031240;28;21216;-75
2021/10/21 02:41:29;;;;;;;8.73;4.33;;;15.30;97.20;;;;;;5030895;28;20451;-73
2021/10/21 02:43:55;;;;;;;7.67;4.73;;;15.30;96.90;;;;;;5030708;28;20795;-75
2021/10/21 02:46:21;;;;;;;7.77;4.03;;;15.40;96.50;;;;;;5032009;28;20546;-75
2021/10/21 02:48:47;;;;;;;6.73;4.07;;;15.50;96.20;;;;;;5030560;28;20193;-74
2021/10/21 02:51:12;;;;;;;7.20;4.00;;;15.60;95.80;;;;;;5037391;28;20657;-75
2021/10/21 02:53:38;;;;;;;8.13;4.47;;;15.70;95.20;;;;;;5037470;28;20421;-74
2021/10/21 02:56:04;;;;;;;7.33;4.20;;;15.70;94.80;;;;;;5033821;28;20189;-74
2021/10/21 02:58:30;;;;;;;7.70;4.03;;;15.80;94.70;;;;;;5030390;28;20186;-76
2021/10/21 03:00:56;;;;;;;7.90;4.40;;;15.80;94.70;;;;;;5030162;28;20434;-76
2021/10/21 03:03:22;;;;;;;7.10;4.10;;;15.80;94.50;;;;;;5030142;28;20197;-74
2021/10/21 03:05:48;;;;;;;5.07;3.67;;;15.90;94.20;;;;;;5029173;28;20517;-75
2021/10/21 03:08:14;;;;;;;7.40;4.00;;;15.90;94.00;;;;;;5030408;28;20213;-75
2021/10/21 03:10:40;;;;;;;8.30;3.97;;;16.00;93.40;;;;;;5030425;28;20409;-75
2021/10/21 03:13:05;;;;;;;5.60;3.40;;;16.00;93.50;;;;;;5029867;28;20346;-76
2021/10/21 03:15:31;;;;;;;5.87;3.50;;;15.90;93.80;;;;;;5030530;28;20260;-75
2021/10/21 03:17:57;;;;;;;4.37;3.03;;;15.90;93.90;;;;;;5030894;28;20192;-74
2021/10/21 03:20:25;;;;;;;3.67;3.10;;;16.00;93.60;;;;;;5030088;28;20252;-75
2021/10/21 03:22:51;;;;;;;5.80;3.27;;;15.90;93.50;;;;;;5029728;28;20471;-75
2021/10/21 03:25:16;;;;;;;7.63;3.73;;;16.00;93.30;;;;;;5030332;28;20414;-74
2021/10/21 03:27:42;;;;;;;4.73;3.20;;;16.00;93.30;;;;;;5031902;28;20474;-75
2021/10/21 03:30:10;;;;;;;5.47;3.63;;;16.00;93.50;;;;;;5031349;28;20185;-77
2021/10/21 03:32:37;;;;;;;4.10;3.20;;;15.90;94.00;;;;;;5031117;28;20452;-75
2021/10/21 03:35:04;;;;;;;3.70;3.03;;;15.70;94.50;;;;;;5036238;28;20431;-74
2021/10/21 03:37:31;;;;;;;7.13;3.60;;;15.70;94.30;;;;;;5035038;28;20474;-75
2021/10/21 03:39:56;;;;;;;3.47;2.80;;;15.60;94.70;;;;;;5035847;28;20445;-75
2021/10/21 03:42:23;;;;;;;4.57;2.60;;;15.60;95.20;;;;;;5029601;28;20923;-76
2021/10/21 03:44:49;;;;;;;3.40;2.43;;;15.50;95.10;;;;;;5030519;28;20182;-75
2021/10/21 03:47:16;;;;;;;3.23;2.03;;;15.50;94.80;;;;;;5029268;28;20558;-74
2021/10/21 03:49:42;;;;;;;3.80;1.80;;;15.60;93.90;;;;;;5029777;28;20771;-76
2021/10/21 03:52:08;;;;;;;3.47;2.23;;;15.60;93.70;;;;;;5029881;28;20444;-75
2021/10/21 03:54:34;;;;;;;3.90;1.87;;;15.70;93.00;;;;;;5045169;28;20174;-75
2021/10/21 03:57:00;;;;;;;3.13;1.80;;;15.70;92.40;;;;;;5048024;28;20185;-75
2021/10/21 03:59:26;;;;;;;2.10;1.70;;;15.70;92.40;;;;;;5045909;28;20189;-75
2021/10/21 04:01:54;;;;;;;2.07;1.60;;;15.70;92.70;;;;;;5029911;28;20243;-73
2021/10/21 04:04:20;;;;;;;2.70;1.80;;;15.70;92.10;;;;;;5029827;28;20424;-74
2021/10/21 04:06:46;;;;;;;6.87;1.93;;;15.80;91.70;;;;;;5028787;28;20459;-75
2021/10/21 04:09:13;;;;;;;2.43;1.60;;;15.90;91.10;;;;;;5030468;28;20416;-76
2021/10/21 04:11:38;;;;;;;2.30;1.30;;;15.90;90.30;;;;;;5029200;28;20447;-75
2021/10/21 04:14:04;;;;;;;2.23;1.50;;;15.90;89.20;;;;;;5029461;28;20815;-74
2021/10/21 04:16:30;;;;;;;3.33;1.77;;;15.90;88.00;;;;;;5030188;28;20188;-75
2021/10/21 04:18:56;;;;;;;4.67;1.57;;;16.00;88.00;;;;;;5030916;28;20191;-77
2021/10/21 04:21:22;;;;;;;2.03;1.40;;;16.00;85.00;;;;;;5029584;28;20307;-75
2021/10/21 04:23:48;;;;;;;2.13;1.20;;;15.90;84.10;;;;;;5029703;28;20424;-75
2021/10/21 04:26:13;;;;;;;4.20;1.27;;;15.90;82.20;;;;;;5030715;28;20423;-75
2021/10/21 04:28:39;;;;;;;2.77;1.17;;;15.90;81.50;;;;;;5030895;28;20207;-75
2021/10/21 04:31:05;;;;;;;1.53;1.23;;;15.90;80.30;;;;;;5030370;28;20185;-75
2021/10/21 04:33:31;;;;;;;2.97;1.17;;;15.90;79.00;;;;;;5028866;28;20201;-76
2021/10/21 04:35:57;;;;;;;5.50;1.60;;;15.90;77.10;;;;;;5031434;28;20420;-77
2021/10/21 04:38:23;;;;;;;2.30;1.07;;;15.80;77.10;;;;;;5030687;28;20219;-77
2021/10/21 04:40:48;;;;;;;5.07;1.20;;;15.80;76.40;;;;;;5030661;28;20856;-77
2021/10/21 04:43:14;;;;;;;4.93;1.20;;;15.80;75.20;;;;;;5031194;28;20251;-76
2021/10/21 04:45:40;;;;;;;1.20;1.00;;;15.70;74.30;;;;;;5030906;28;20569;-76
2021/10/21 04:48:06;;;;;;;5.40;1.30;;;15.70;73.50;;;;;;5031280;28;20495;-76
2021/10/21 04:50:31;;;;;;;2.77;1.03;;;15.60;71.40;;;;;;5031638;28;20189;-78
2021/10/21 04:52:57;;;;;;;6.40;1.60;;;15.60;72.70;;;;;;5032385;28;20209;-76
2021/10/21 04:55:24;;;;;;;1.90;1.13;;;15.50;72.30;;;;;;5034174;28;21344;-76
2021/10/21 04:57:51;;;;;;;4.47;1.00;;;15.40;73.30;;;;;;5033958;28;20298;-75
2021/10/21 05:00:17;;;;;;;2.80;1.20;;;15.30;71.80;;;;;;5032236;28;20527;-76
2021/10/21 05:02:43;;;;;;;4.47;1.40;;;15.30;72.30;;;;;;5032773;28;20448;-77
2021/10/21 05:05:10;;;;;;;3.53;1.20;;;15.20;70.50;;;;;;5031909;28;20435;-78
2021/10/21 05:07:35;;;;;;;2.93;1.20;;;15.20;69.50;;;;;;5033220;28;20476;-77
2021/10/21 05:10:01;;;;;;;2.97;1.10;;;15.10;69.80;;;;;;5032495;28;20443;-73
2021/10/21 05:12:27;;;;;;;12.37;2.20;;;15.10;67.00;;;;;;5033265;28;20225;-74
2021/10/21 05:14:53;;;;;;;3.47;1.20;;;15.10;67.70;;;;;;5033645;28;20470;-76
2021/10/21 05:17:19;;;;;;;5.80;1.30;;;15.00;68.00;;;;;;5033779;28;20178;-74
2021/10/21 05:19:45;;;;;;;3.37;1.27;;;15.00;68.00;;;;;;5034978;28;20718;-75
2021/10/21 05:22:11;;;;;;;2.07;0.97;;;14.90;67.20;;;;;;5031714;28;20443;-74
2021/10/21 05:24:37;;;;;;;3.17;1.00;;;14.90;67.50;;;;;;5049988;28;20714;-75
2021/10/21 05:27:03;;;;;;;6.47;1.10;;;14.90;67.00;;;;;;5046598;28;20471;-75
2021/10/21 05:29:29;;;;;;;3.10;1.20;;;14.80;66.40;;;;;;5038317;28;20499;-75
2021/10/21 05:31:55;;;;;;;4.97;1.17;;;14.80;66.40;;;;;;5037235;28;20197;-75
2021/10/21 05:34:21;;;;;;;3.10;1.13;;;14.80;65.70;;;;;;5035072;28;20446;-74
2021/10/21 05:36:46;;;;;;;5.37;1.37;;;14.70;65.80;;;;;;5033782;28;20798;-75
2021/10/21 05:39:12;;;;;;;5.23;1.40;;;14.70;65.80;;;;;;5034875;28;20288;-74
2021/10/21 05:41:38;;;;;;;3.30;1.00;;;14.70;66.30;;;;;;5034668;28;20212;-76
2021/10/21 05:44:04;;;;;;;3.63;1.20;;;14.60;66.60;;;;;;5034484;28;20420;-74
2021/10/21 05:46:30;;;;;;;4.53;1.43;;;14.60;66.60;;;;;;5033483;28;20510;-75
2021/10/21 05:48:56;;;;;;;3.60;1.20;;;14.60;67.00;;;;;;5034558;28;20415;-75
2021/10/21 05:51:21;;;;;;;4.97;1.53;;;14.60;67.50;;;;;;5033439;28;20675;-74
2021/10/21 05:53:49;;;;;;;6.87;1.57;;;14.50;68.00;;;;;;5034753;28;20185;-74
2021/10/21 05:56:15;;;;;;;4.40;2.03;;;14.50;68.00;;;;;;5035672;28;20177;-74
2021/10/21 05:58:41;;;;;;;6.70;1.33;;;14.50;68.50;;;;;;5035496;28;20425;-75
2021/10/21 06:01:07;;;;;;;6.57;1.57;;;14.40;67.60;;;;;;5034067;28;20792;-76
2021/10/21 06:03:36;;;;;;;6.90;1.50;;;14.40;67.70;;;;;;5042002;28;20440;-74
2021/10/21 06:06:06;;;;;;;3.77;1.53;;;14.40;67.90;;;;;;5040322;28;20177;-75
2021/10/21 06:08:33;;;;;;;7.00;1.30;;;14.40;67.60;;;;;;5037627;28;20420;-75
2021/10/21 06:11:04;;;;;;;6.83;1.60;;;14.40;67.60;;;;;;5045283;28;20408;-75
2021/10/21 06:13:32;;;;;;;3.80;1.40;;;14.30;67.50;;;;;;5047620;28;20460;-75
2021/10/21 06:15:58;;;;;;;4.80;1.60;;;14.30;67.30;;;;;;5042331;28;20420;-75
2021/10/21 06:18:24;;;;;;;3.80;1.60;;;14.40;66.90;;;;;;5034258;28;20945;-75
2021/10/21 06:20:50;;;;;;;9.50;1.63;;;14.40;67.20;;;;;;5033089;28;20275;-75
2021/10/21 06:23:15;;;;;;;7.00;1.93;;;14.30;66.90;;;;;;5033706;28;20643;-75
2021/10/21 06:25:41;;;;;;;7.87;1.20;;;14.30;66.70;;;;;;5034230;28;20192;-74
2021/10/21 06:28:07;;;;;;;6.03;2.37;;;14.30;66.90;;;;;;5034324;28;20205;-75
2021/10/21 06:30:34;;;;;;;5.80;1.43;;;14.30;66.10;;;;;;5034371;28;20177;-75
2021/10/21 06:33:01;;;;;;;4.67;1.20;;;14.30;66.10;;;;;;5037977;28;20201;-75
2021/10/21 06:35:26;;;;;;;6.17;1.50;;;14.30;66.00;;;;;;5035450;28;20470;-75
2021/10/21 06:37:52;;;;;;;9.70;1.87;;;14.20;66.30;;;;;;5032669;28;20416;-75
2021/10/21 06:40:18;;;;;;;7.40;1.40;;;14.30;65.70;;;;;;5033785;28;20181;-75
2021/10/21 06:42:44;;;;;;;6.93;1.50;;;14.30;65.10;;;;;;5033332;28;20201;-75
2021/10/21 06:45:12;;;;;;;4.00;1.40;;;14.40;64.50;;;;;;5033297;28;20209;-74
2021/10/21 06:47:39;;;;;;;3.00;1.60;;;14.40;65.00;;;;;;5033762;28;20201;-75
2021/10/21 06:50:07;;;;;;;14.07;2.03;;;14.40;64.70;;;;;;5033736;28;21195;-75
2021/10/21 06:52:33;;;;;;;7.50;1.43;;;14.30;64.80;;;;;;5033443;28;20460;-76
2021/10/21 06:54:59;;;;;;;4.20;1.30;;;14.40;64.10;;;;;;5033340;28;20428;-74
2021/10/21 06:57:25;;;;;;;6.37;1.70;;;14.40;64.10;;;;;;5033187;28;20860;-72
2021/10/21 06:59:50;;;;;;;6.83;1.63;;;14.40;63.80;;;;;;5035943;28;20189;-73
2021/10/21 07:02:16;;;;;;;8.33;1.40;;;14.40;63.90;;;;;;5034392;28;20212;-73
2021/10/21 07:04:42;;;;;;;9.53;1.10;;;14.40;63.90;;;;;;5033099;28;20186;-73
2021/10/21 07:07:08;;;;;;;8.67;1.33;;;14.50;62.80;;;;;;5032483;28;20205;-73
2021/10/21 07:09:33;;;;;;;3.13;1.17;;;14.50;62.60;;;;;;5033238;28;20275;-73
2021/10/21 07:11:59;;;;;;;10.37;1.70;;;14.60;62.80;;;;;;5032627;28;20217;-74
2021/10/21 07:14:25;;;;;;;5.40;1.10;;;14.60;62.60;;;;;;5032587;28;20177;-74
2021/10/21 07:16:51;;;;;;;7.77;1.97;;;14.60;62.50;;;;;;5031563;28;20217;-73
2021/10/21 07:19:16;;;;;;;10.30;1.97;;;14.70;62.60;;;;;;5031860;28;20593;-72
2021/10/21 07:21:43;;;;;;;3.63;1.30;;;14.70;62.60;;;;;;5031715;28;20591;-72
2021/10/21 07:24:09;;;;;;;6.43;1.17;;;14.70;62.30;;;;;;5031948;28;20189;-72
2021/10/21 07:26:35;;;;;;;4.30;1.30;;;14.70;62.20;;;;;;5031677;28;21175;-72
2021/10/21 07:29:01;;;;;;;3.30;1.33;;;14.70;62.60;;;;;;5031985;28;20267;-73
2021/10/21 07:31:27;;;;;;;3.80;1.27;;;14.70;62.90;;;;;;5029809;28;20185;-73
2021/10/21 07:33:53;;;;;;;7.67;1.70;;;14.80;63.10;;;;;;5031044;28;20178;-73
2021/10/21 07:36:19;;;;;;;6.17;1.40;;;14.80;62.20;;;;;;5032039;28;20183;-74
2021/10/21 07:38:46;;;;;;;5.43;1.23;;;14.90;62.30;;;;;;5032273;28;20911;-73
2021/10/21 07:41:12;;;;;;;8.47;1.60;;;14.90;62.30;;;;;;5030610;28;20432;-74
2021/10/21 07:43:38;;;;;;;5.83;1.53;;;14.90;62.60;;;;;;5030185;28;20501;-74
2021/10/21 07:46:04;;;;;;;11.50;1.43;;;15.00;62.80;;;;;;5031281;28;20428;-73
2021/10/21 07:48:30;;;;;;;11.93;1.63;;;15.10;62.80;;;;;;5032248;28;20423;-73
2021/10/21 07:50:56;;;;;;;3.47;1.13;;;15.10;61.90;;;;;;5031982;28;20847;-73
2021/10/21 07:53:22;;;;;;;6.83;1.37;;;15.00;61.60;;;;;;5032680;28;20312;-73
2021/10/21 07:55:48;;;;;;;31.83;1.50;;;14.90;61.50;;;;;;5031079;28;20435;-72
2021/10/21 07:58:14;;;;;;;4.17;1.40;;;14.90;61.00;;;;;;5033076;28;20270;-73
2021/10/21 08:00:40;;;;;;;1.93;0.90;;;14.90;61.90;;;;;;5032499;28;20208;-73
2021/10/21 08:03:06;;;;;;;4.13;1.20;;;14.90;61.30;;;;;;5033421;28;20942;-74
2021/10/21 08:05:32;;;;;;;4.33;1.10;;;14.90;61.90;;;;;;5032441;28;20185;-73
2021/10/21 08:08:01;;;;;;;4.30;1.00;;;14.80;61.50;;;;;;5032083;28;20224;-74
2021/10/21 08:10:26;;;;;;;4.60;1.13;;;14.90;61.60;;;;;;5031231;28;20435;-74
2021/10/21 08:12:52;;;;;;;2.47;0.63;;;14.90;61.50;;;;;;5031980;28;20458;-74
2021/10/21 08:15:18;;;;;;;3.30;1.00;;;14.80;60.90;;;;;;5031944;28;20276;-73
2021/10/21 08:17:44;;;;;;;7.10;1.10;;;14.80;61.00;;;;;;5038371;28;20185;-74
2021/10/21 08:20:14;;;;;;;4.63;0.83;;;14.70;60.30;;;;;;5031930;28;20514;-73
2021/10/21 08:22:41;;;;;;;1.30;0.90;;;14.70;61.30;;;;;;5032100;28;20451;-75
2021/10/21 08:25:09;;;;;;;4.90;0.90;;;14.70;60.90;;;;;;5031360;28;20420;-73
2021/10/21 08:27:34;;;;;;;4.07;1.00;;;14.70;60.60;;;;;;5030508;28;20534;-74
2021/10/21 08:30:00;;;;;;;2.63;0.83;;;14.70;60.60;;;;;;5031882;28;20511;-72
2021/10/21 08:32:26;;;;;;;3.53;0.90;;;14.80;60.90;;;;;;5031458;28;20212;-73
2021/10/21 08:34:52;;;;;;;2.00;0.80;;;14.80;60.70;;;;;;5027513;28;20185;-79
2021/10/21 08:37:18;;;;;;;2.33;0.87;;;14.70;60.90;;;;;;5032256;28;20667;-78
2021/10/21 08:39:43;;;;;;;4.53;0.80;;;14.70;61.00;;;;;;5032824;28;20265;-78
2021/10/21 08:42:10;;;;;;;5.80;1.07;;;14.70;61.20;;;;;;5034420;28;20454;-78
2021/10/21 08:44:38;;;;;;;32.23;4.03;;;14.70;61.30;;;;;;5034734;28;20201;-78
2021/10/21 08:47:05;;;;;;;2.50;0.70;;;14.60;61.70;;;;;;5033258;28;20470;-78
2021/10/21 08:49:32;;;;;;;3.30;1.10;;;14.50;61.90;;;;;;5035263;28;20495;-78
2021/10/21 08:51:57;;;;;;;10.77;1.27;;;14.50;62.60;;;;;;5053796;28;20439;-77
2021/10/21 08:54:24;;;;;;;3.27;1.20;;;14.50;63.20;;;;;;5039082;28;20974;-78
2021/10/21 08:56:50;;;;;;;7.30;1.40;;;14.50;63.40;;;;;;5034066;28;20258;-78
2021/10/21 08:59:15;;;;;;;1.07;0.60;;;14.20;66.00;;;;;;5036387;28;20455;-78
2021/10/21 09:01:51;;;;;;;4.80;1.30;;;13.80;67.30;;;;;;5036612;28;20288;-78
2021/10/21 09:09:24;;;;;;;2.23;1.00;;;13.50;68.90;;;;;;5036147;28;20427;-77
2021/10/21 09:12:07;;;;;;;10.13;1.07;;;13.40;69.40;;;;;;5034909;28;20971;-77
2021/10/21 09:14:35;;;;;;;3.03;1.23;;;13.30;70.20;;;;;;5034032;28;20526;-76
2021/10/21 09:17:02;;;;;;;2.37;0.90;;;13.20;69.70;;;;;;5036463;28;20430;-77
2021/10/21 09:19:29;;;;;;;1.83;0.90;;;13.30;69.10;;;;;;5035377;28;20446;-77
2021/10/21 09:21:55;;;;;;;1.30;0.60;;;13.40;69.20;;;;;;5037761;28;20447;-79
2021/10/21 09:24:31;;;;;;;3.30;0.90;;;13.40;68.90;;;;;;5036021;28;20477;-77
2021/10/21 09:26:58;;;;;;;2.20;1.03;;;13.40;68.30;;;;;;5024372;28;20906;-76
2021/10/21 09:29:24;;;;;;;1.10;0.80;;;13.40;68.60;;;;;;5037596;28;20435;-77
2021/10/21 09:32:32;;;;;;;4.30;0.80;;;13.50;68.90;;;;;;5045084;28;20470;-76
2021/10/21 09:35:07;;;;;;;2.53;0.90;;;13.50;68.90;;;;;;5035911;28;20434;-76
2021/10/21 09:37:35;;;;;;;7.10;0.60;;;13.50;69.10;;;;;;5045149;28;20423;-78
2021/10/21 09:40:06;;;;;;;1.83;0.70;;;13.50;69.10;;;;;;5049721;28;20479;-76
2021/10/21 09:42:39;;;;;;;5.63;0.93;;;13.40;69.90;;;;;;5039396;28;20447;-76
2021/10/21 09:45:11;;;;;;;3.00;0.90;;;13.40;69.90;;;;;;5039623;28;20419;-77
2021/10/21 09:47:38;;;;;;;4.27;0.80;;;13.40;70.10;;;;;;5037662;28;21008;-77
2021/10/21 09:50:32;;;;;;;2.43;0.80;;;13.40;69.50;;;;;;5044759;28;20499;-76
2021/10/21 09:53:20;;;;;;;3.57;0.80;;;13.40;69.40;;;;;;5039610;28;20438;-77
2021/10/21 09:56:00;;;;;;;0.97;0.60;;;13.40;69.10;;;;;;5038484;28;20802;-76
2021/10/21 09:58:30;;;;;;;4.20;0.60;;;13.50;68.00;;;;;;5045846;28;20426;-76
2021/10/21 10:01:08;;;;;;;4.50;0.83;;;13.50;65.30;;;;;;5046010;28;20416;-78
2021/10/21 10:03:35;;;;;;;8.40;0.80;;;13.30;62.50;;;;;;5042168;28;20448;-77
2021/10/21 10:06:01;;;;;;;2.50;0.77;;;13.20;62.80;;;;;;5037731;28;20546;-77
2021/10/21 10:08:30;;;;;;;4.27;1.47;;;13.10;63.40;;;;;;5035318;28;20495;-76
2021/10/21 10:11:08;;;;;;;9.37;1.97;;;13.20;63.20;;;;;;5034280;28;20187;-77
2021/10/21 10:13:34;;;;;;;2.87;1.20;;;13.40;63.40;;;;;;5033983;28;20474;-77
2021/10/21 10:16:00;;;;;;;4.30;1.30;;;13.60;62.80;;;;;;5033587;28;20420;-78
2021/10/21 10:18:30;;;;;;;6.30;1.20;;;13.70;61.00;;;;;;5034698;28;20435;-77
2021/10/21 10:21:07;;;;;;;4.70;1.00;;;13.80;59.10;;;;;;5035314;28;20208;-76
2021/10/21 10:23:35;;;;;;;1.50;0.93;;;14.10;58.10;;;;;;5067959;28;20458;-76
2021/10/21 10:26:01;;;;;;;8.33;3.70;;;14.20;57.30;;;;;;5038087;28;20429;-76
2021/10/21 10:28:52;;;;;;;1.80;1.00;;;14.40;57.60;;;;;;5042684;28;20475;-76
2021/10/21 10:31:38;;;;;;;6.20;1.60;;;14.80;55.70;;;;;;5042039;28;20193;-76
2021/10/21 10:34:04;;;;;;;93.23;11.33;;;14.80;55.30;;;;;;5038796;28;20436;-76
2021/10/21 10:36:31;;;;;;;2.63;1.10;;;14.80;55.60;;;;;;5034503;28;20428;-76
2021/10/21 10:39:09;;;;;;;14.07;2.23;;;15.10;54.80;;;;;;5034642;28;20201;-78
2021/10/21 10:41:41;;;;;;;2.07;1.20;;;15.30;54.40;;;;;;5030732;28;20469;-75
2021/10/21 10:44:09;;;;;;;2.03;0.90;;;15.70;53.80;;;;;;5037017;28;20794;-77
2021/10/21 10:46:51;;;;;;;2.93;0.90;;;16.00;53.30;;;;;;5035543;28;20966;-76
2021/10/21 10:49:39;;;;;;;3.00;1.07;;;15.90;54.10;;;;;;5037421;28;20483;-77
2021/10/21 10:52:06;;;;;;;3.33;1.00;;;15.30;55.60;;;;;;5044223;28;20444;-77
2021/10/21 10:54:52;;;;;;;1.77;0.77;;;14.90;56.80;;;;;;5032684;28;20424;-76
2021/10/21 10:57:24;;;;;;;1.20;0.90;;;14.90;57.70;;;;;;5033396;28;20493;-77
2021/10/21 10:59:54;;;;;;;5.37;1.40;;;15.20;57.30;;;;;;5033486;28;20421;-77
2021/10/21 11:02:25;;;;;;;2.00;1.10;;;15.30;57.30;;;;;;5033871;28;20451;-77
2021/10/21 11:04:51;;;;;;;7.40;1.50;;;15.50;56.40;;;;;;5034304;28;20428;-75
2021/10/21 11:07:22;;;;;;;4.03;1.10;;;15.60;56.20;;;;;;5034330;28;21113;-77
2021/10/21 11:09:48;;;;;;;2.17;1.07;;;15.60;56.80;;;;;;5034673;28;20435;-76
2021/10/21 11:12:23;;;;;;;8.23;1.10;;;15.60;55.80;;;;;;5033715;28;20464;-77
2021/10/21 11:14:58;;;;;;;1.40;0.80;;;15.70;54.90;;;;;;5031247;28;20537;-77
2021/10/21 11:17:44;;;;;;;1.60;0.90;;;15.40;54.50;;;;;;5030998;28;20458;-78
2021/10/21 11:20:31;;;;;;;5.20;1.60;;;15.10;55.60;;;;;;5031809;28;20423;-77
2021/10/21 11:22:58;;;;;;;4.10;0.93;;;15.30;55.80;;;;;;5031357;28;20517;-76
2021/10/21 11:25:29;;;;;;;1.20;0.90;;;15.60;54.60;;;;;;5031723;28;20424;-76
2021/10/21 11:27:56;;;;;;;1.57;1.07;;;15.60;54.20;;;;;;5031940;28;20471;-78
2021/10/21 11:30:25;;;;;;;10.60;1.23;;;15.80;53.60;;;;;;5031775;28;20919;-76
2021/10/21 11:32:53;;;;;;;2.60;1.10;;;16.00;52.50;;;;;;5030403;28;20436;-77
2021/10/21 11:35:21;;;;;;;4.03;1.20;;;16.10;52.20;;;;;;5031592;28;21227;-77
2021/10/21 11:37:47;;;;;;;5.20;1.40;;;16.40;52.00;;;;;;5031784;28;20426;-76
2021/10/21 11:40:25;;;;;;;3.97;1.27;;;16.50;50.50;;;;;;5030953;28;20443;-78
2021/10/21 11:43:00;;;;;;;4.20;1.07;;;15.90;51.70;;;;;;5031208;28;20240;-77
2021/10/21 11:45:35;;;;;;;3.60;1.10;;;15.80;51.60;;;;;;5030533;28;20932;-76
2021/10/21 11:48:05;;;;;;;3.70;1.27;;;15.50;52.20;;;;;;5031563;28;20969;-76
2021/10/21 11:50:36;;;;;;;4.93;1.93;;;15.50;52.80;;;;;;5030281;28;20922;-76
2021/10/21 11:53:03;;;;;;;4.00;0.90;;;15.70;52.00;;;;;;5029913;28;20459;-76
2021/10/21 11:55:29;;;;;;;3.07;1.20;;;15.70;52.40;;;;;;5031561;28;20793;-76
2021/10/21 11:57:57;;;;;;;5.27;1.20;;;15.60;52.20;;;;;;5031948;28;20914;-77
2021/10/21 12:00:28;;;;;;;8.57;1.40;;;15.60;52.60;;;;;;5032101;28;21837;-76
2021/10/21 12:02:57;;;;;;;1.40;1.00;;;15.60;52.20;;;;;;5031428;28;20960;-76
2021/10/21 12:05:25;;;;;;;6.53;1.10;;;15.20;53.80;;;;;;5030024;28;20428;-77
2021/10/21 12:07:52;;;;;;;3.03;1.43;;;15.10;54.20;;;;;;5032014;28;20966;-77
2021/10/21 12:10:25;;;;;;;1.80;1.00;;;15.20;54.60;;;;;;5031153;28;20431;-75
2021/10/21 12:12:50;;;;;;;2.87;1.30;;;14.90;54.40;;;;;;5032026;28;20446;-75
2021/10/21 12:15:19;;;;;;;2.60;1.00;;;14.90;54.80;;;;;;5030866;28;20759;-75
2021/10/21 12:17:46;;;;;;;5.57;1.20;;;14.90;54.20;;;;;;5034866;28;20249;-74
2021/10/21 12:20:13;;;;;;;2.80;1.40;;;15.00;54.00;;;;;;5054288;28;20441;-75
2021/10/21 12:22:39;;;;;;;4.63;1.40;;;15.00;53.80;;;;;;5043610;28;20462;-77
2021/10/21 12:25:06;;;;;;;2.80;1.30;;;15.30;54.00;;;;;;5037065;28;20520;-76
2021/10/21 12:27:32;;;;;;;2.70;1.10;;;15.50;53.30;;;;;;5036393;28;20563;-77
2021/10/21 12:30:03;;;;;;;3.00;1.30;;;15.60;53.20;;;;;;5035980;28;20518;-77
2021/10/21 12:32:29;;;;;;;4.90;1.73;;;15.80;53.00;;;;;;5027894;28;20452;-77
2021/10/21 12:35:09;;;;;;;3.67;0.90;;;15.90;52.50;;;;;;5036436;28;20439;-75
2021/10/21 12:37:40;;;;;;;7.27;1.47;;;16.10;52.40;;;;;;5043343;28;20177;-75
2021/10/21 12:40:24;;;;;;;4.80;1.20;;;16.30;50.90;;;;;;5042446;28;20435;-76
2021/10/21 12:42:50;;;;;;;1.27;0.90;;;15.80;52.10;;;;;;5036573;28;20512;-77
2021/10/21 12:45:21;;;;;;;3.63;1.10;;;15.70;52.10;;;;;;5035373;28;20431;-77
2021/10/21 12:47:47;;;;;;;4.07;1.13;;;15.70;52.10;;;;;;5034920;28;20470;-77
2021/10/21 12:50:17;;;;;;;2.40;1.20;;;15.50;52.60;;;;;;5035076;28;20451;-76
2021/10/21 12:52:44;;;;;;;1.60;0.90;;;15.20;53.80;;;;;;5028832;28;20508;-76
2021/10/21 12:55:22;;;;;;;5.47;1.47;;;15.10;54.50;;;;;;5033649;28;20442;-76